Time;durP1;ratioP1;P1;durP2;ratioP2;P2;SDS_P1;SDS_P2;PMS_P1;PMS_P2;Temp;Humidity;BMP_temperature;BMP_pressure;BME280_temperature;BME280_humidity;BME280_pressure;Samples;Min_cycle;Max_cycle;Signal;HPM_P1;HPM_P2
2023/08/25 00:00:09;;;;;;;5.07;4.68;;;;;;;20.71;100.00;95364.31;4979241;28;20681;-81
2023/08/25 00:02:34;;;;;;;6.22;5.57;;;;;;;20.75;99.30;95373.41;4973185;28;20189;-81
2023/08/25 00:05:00;;;;;;;5.05;4.55;;;;;;;20.77;99.01;95368.75;4972186;28;20528;-81
2023/08/25 00:07:25;;;;;;;5.43;4.95;;;;;;;20.52;100.00;95368.72;4986519;28;20589;-81
2023/08/25 00:09:50;;;;;;;5.68;4.82;;;;;;;20.51;100.00;95365.28;4989792;28;20192;-81
2023/08/25 00:12:16;;;;;;;5.82;4.60;;;;;;;20.46;100.00;95362.47;4983205;28;20195;-81
2023/08/25 00:14:41;;;;;;;6.30;4.50;;;;;;;20.44;100.00;95353.97;4997945;28;20724;-81
2023/08/25 00:17:08;;;;;;;4.78;4.32;;;;;;;20.42;100.00;95361.25;4984503;28;20196;-82
2023/08/25 00:19:33;;;;;;;5.45;4.38;;;;;;;20.44;100.00;95364.50;4983976;28;20198;-81
2023/08/25 00:21:59;;;;;;;5.60;4.40;;;;;;;20.40;100.00;95360.63;5004982;28;20184;-81
2023/08/25 00:24:24;;;;;;;5.35;4.45;;;;;;;20.43;100.00;95352.34;4991676;28;20184;-81
2023/08/25 00:26:49;;;;;;;4.63;4.22;;;;;;;20.48;100.00;95344.59;4999137;28;20713;-81
2023/08/25 00:29:15;;;;;;;5.03;4.53;;;;;;;20.45;100.00;95336.31;5002469;28;20215;-81
2023/08/25 00:31:40;;;;;;;9.25;4.70;;;;;;;20.51;99.65;95344.19;4996824;28;20676;-81
2023/08/25 00:34:06;;;;;;;4.60;4.20;;;;;;;20.58;99.26;95333.56;4999252;28;20205;-81
2023/08/25 00:36:31;;;;;;;4.60;4.20;;;;;;;20.56;99.56;95336.41;4992438;28;20204;-81
2023/08/25 00:38:56;;;;;;;5.20;4.25;;;;;;;20.50;99.94;95336.47;4975693;28;20212;-81
2023/08/25 00:41:22;;;;;;;6.20;4.18;;;;;;;20.50;100.00;95326.75;4992279;28;20208;-81
2023/08/25 00:43:48;;;;;;;5.13;4.05;;;;;;;20.47;100.00;95328.97;4987941;28;20199;-81
2023/08/25 00:46:14;;;;;;;6.30;4.07;;;;;;;20.47;98.45;95327.16;4972817;28;20210;-82
2023/08/25 00:48:40;;;;;;;5.03;4.53;;;;;;;20.46;98.27;95327.38;4992558;28;20210;-81
2023/08/25 00:51:06;;;;;;;4.70;4.30;;;;;;;20.47;96.27;95321.88;4965538;28;20191;-81
2023/08/25 00:53:33;;;;;;;4.90;3.90;;;;;;;20.52;96.85;95318.59;4980941;28;20219;-80
2023/08/25 00:55:58;;;;;;;5.72;3.63;;;;;;;20.48;97.31;95312.13;4982906;28;20238;-81
2023/08/25 00:58:23;;;;;;;5.45;4.72;;;;;;;20.40;97.60;95320.25;4990633;28;20212;-81
2023/08/25 01:00:49;;;;;;;4.18;3.78;;;;;;;20.45;97.48;95316.00;4991440;28;20230;-81
2023/08/25 01:03:15;;;;;;;7.78;4.03;;;;;;;20.49;96.29;95304.00;4971506;28;20184;-81
2023/08/25 01:05:40;;;;;;;5.15;3.75;;;;;;;20.34;98.32;95306.13;4973137;28;20212;-81
2023/08/25 01:08:05;;;;;;;6.18;4.35;;;;;;;20.26;97.12;95301.13;4976208;28;20238;-81
2023/08/25 01:10:42;;;;;;;7.28;3.92;;;;;;;20.47;92.73;95311.31;4994738;28;20773;-81
2023/08/25 01:13:44;;;;;;;5.63;3.70;;;;;;;20.31;96.77;95311.81;4964909;28;20693;-81
2023/08/25 01:16:12;;;;;;;4.90;3.85;;;;;;;20.41;96.97;95316.59;4955816;28;20572;-81
2023/08/25 01:18:40;;;;;;;7.35;4.15;;;;;;;20.40;96.50;95315.00;4996198;28;20230;-80
2023/08/25 01:21:06;;;;;;;8.07;3.88;;;;;;;20.27;97.87;95315.91;4988128;28;20279;-81
2023/08/25 01:23:38;;;;;;;6.95;4.07;;;;;;;20.20;97.60;95308.03;4957798;28;20192;-81
2023/08/25 01:26:04;;;;;;;5.28;4.10;;;;;;;20.15;99.04;95317.63;4982448;28;20207;-81
2023/08/25 01:28:29;;;;;;;6.45;4.15;;;;;;;20.07;98.24;95316.03;4994717;28;20706;-80
2023/08/25 01:30:57;;;;;;;5.20;4.47;;;;;;;20.04;98.61;95314.63;4997939;28;20196;-81
2023/08/25 01:33:23;;;;;;;6.05;4.28;;;;;;;20.07;98.99;95303.66;4996696;28;20188;-81
2023/08/25 01:35:58;;;;;;;6.80;4.07;;;;;;;20.03;98.68;95312.19;4991978;28;20219;-80
2023/08/25 01:38:29;;;;;;;5.80;4.03;;;;;;;19.99;98.85;95311.81;4990333;28;20271;-81
2023/08/25 01:41:08;;;;;;;5.45;4.13;;;;;;;19.97;98.91;95305.16;4996625;28;20191;-81
2023/08/25 01:43:40;;;;;;;4.10;3.72;;;;;;;19.93;98.81;95315.28;4986776;28;20231;-81
2023/08/25 01:46:08;;;;;;;4.93;3.97;;;;;;;19.84;98.66;95311.28;4976756;28;20212;-81
2023/08/25 01:48:34;;;;;;;4.22;3.83;;;;;;;19.85;98.83;95310.25;4993748;28;20214;-81
2023/08/25 01:50:59;;;;;;;5.93;4.40;;;;;;;19.72;99.96;95312.97;4980709;28;20227;-80
2023/08/25 01:53:25;;;;;;;4.63;4.15;;;;;;;19.73;99.61;95309.31;4997630;28;20184;-81
2023/08/25 01:55:50;;;;;;;5.15;3.85;;;;;;;19.80;99.96;95307.47;4976468;28;20601;-82
2023/08/25 01:58:15;;;;;;;4.93;4.03;;;;;;;19.81;99.26;95298.53;5015599;28;20196;-81
2023/08/25 02:00:41;;;;;;;4.25;3.85;;;;;;;19.70;100.00;95307.09;5015601;28;20362;-82
2023/08/25 02:03:06;;;;;;;5.13;4.45;;;;;;;19.65;100.00;95299.03;5002480;28;20176;-81
2023/08/25 02:05:31;;;;;;;4.70;4.25;;;;;;;19.68;99.92;95296.78;4972135;28;20291;-80
2023/08/25 02:07:57;;;;;;;4.88;4.28;;;;;;;19.62;100.00;95288.91;4983710;28;20242;-82
2023/08/25 02:10:23;;;;;;;5.63;4.30;;;;;;;19.64;100.00;95292.16;4996060;28;20181;-82
2023/08/25 02:12:48;;;;;;;5.57;3.75;;;;;;;19.53;99.97;95286.50;4999863;28;20175;-81
2023/08/25 02:15:13;;;;;;;7.22;4.50;;;;;;;19.55;99.77;95285.47;4959797;28;20188;-82
2023/08/25 02:17:40;;;;;;;5.18;4.25;;;;;;;19.61;99.74;95290.72;4991252;28;20247;-81
2023/08/25 02:20:07;;;;;;;4.80;4.18;;;;;;;19.59;99.82;95284.06;4968558;28;20669;-81
2023/08/25 02:22:32;;;;;;;4.60;4.10;;;;;;;19.45;100.00;95278.81;4962109;28;20216;-81
2023/08/25 02:24:57;;;;;;;6.72;4.22;;;;;;;19.42;100.00;95281.84;4976490;28;20259;-82
2023/08/25 02:27:23;;;;;;;7.47;4.30;;;;;;;19.46;100.00;95285.69;4998361;28;20593;-82
2023/08/25 02:29:48;;;;;;;4.55;4.15;;;;;;;19.41;99.52;95285.50;5002312;28;20575;-81
2023/08/25 02:32:13;;;;;;;5.93;4.60;;;;;;;19.45;99.31;95284.09;4998196;28;20569;-81
2023/08/25 02:34:38;;;;;;;4.78;4.30;;;;;;;19.50;99.04;95286.09;4973165;28;20199;-81
2023/08/25 02:37:04;;;;;;;6.60;4.03;;;;;;;19.41;99.53;95279.44;4996377;28;20193;-82
2023/08/25 02:39:29;;;;;;;7.07;4.28;;;;;;;19.31;100.00;95285.16;4977376;28;20209;-81
2023/08/25 02:41:54;;;;;;;5.22;4.40;;;;;;;19.49;100.00;95281.84;4994211;28;20191;-81
2023/08/25 02:44:20;;;;;;;7.88;4.32;;;;;;;19.39;100.00;95282.28;4998199;28;20826;-81
2023/08/25 02:46:46;;;;;;;4.88;4.20;;;;;;;19.25;100.00;95275.44;4981438;28;20246;-81
2023/08/25 02:49:11;;;;;;;5.20;4.03;;;;;;;19.29;100.00;95275.84;4999414;28;20200;-82
2023/08/25 02:51:36;;;;;;;5.32;4.40;;;;;;;19.21;100.00;95269.78;4981761;28;20297;-81
2023/08/25 02:54:02;;;;;;;5.20;4.10;;;;;;;19.16;100.00;95266.16;4973298;28;20279;-81
2023/08/25 02:56:27;;;;;;;4.72;3.90;;;;;;;19.10;100.00;95264.38;5003512;28;20541;-80
2023/08/25 02:58:52;;;;;;;4.90;4.30;;;;;;;19.12;100.00;95257.88;5009350;28;20735;-81
2023/08/25 03:01:18;;;;;;;6.20;4.35;;;;;;;19.18;100.00;95264.16;5007454;28;20192;-80
2023/08/25 03:03:47;;;;;;;7.30;4.28;;;;;;;19.19;100.00;95255.22;5001308;28;20192;-81
2023/08/25 03:06:13;;;;;;;5.18;4.68;;;;;;;19.35;99.62;95246.88;4985598;28;20211;-81
2023/08/25 03:08:38;;;;;;;5.35;4.05;;;;;;;19.32;99.63;95244.63;4996493;28;20203;-81
2023/08/25 03:11:03;;;;;;;6.15;3.97;;;;;;;19.30;99.13;95251.13;4999783;28;20248;-81
2023/08/25 03:13:30;;;;;;;8.05;4.47;;;;;;;19.35;98.48;95248.69;4978224;28;20284;-81
2023/08/25 03:15:55;;;;;;;6.70;4.05;;;;;;;19.36;98.67;95235.31;4978254;28;20252;-81
2023/08/25 03:18:20;;;;;;;4.95;3.88;;;;;;;19.36;97.98;95232.69;4977999;28;20240;-81
2023/08/25 03:20:51;;;;;;;5.85;4.20;;;;;;;19.35;97.68;95231.06;4999836;28;20219;-81
2023/08/25 03:23:16;;;;;;;4.15;3.75;;;;;;;19.45;96.83;95236.69;4986663;28;20191;-81
2023/08/25 03:25:41;;;;;;;4.78;4.00;;;;;;;19.42;96.91;95231.81;4991528;28;20216;-81
2023/08/25 03:28:07;;;;;;;6.75;3.75;;;;;;;19.37;97.76;95239.56;4984280;28;20215;-81
2023/08/25 03:30:32;;;;;;;3.83;3.47;;;;;;;19.49;96.42;95226.53;4986018;28;20238;-81
2023/08/25 03:32:57;;;;;;;6.30;3.53;;;;;;;19.33;97.41;95229.66;5005088;28;20250;-81
2023/08/25 03:35:22;;;;;;;5.50;3.60;;;;;;;19.45;97.18;95234.06;4990760;28;20614;-81
2023/08/25 03:37:49;;;;;;;7.47;4.07;;;;;;;19.51;96.32;95227.13;4977113;28;20204;-81
2023/08/25 03:40:14;;;;;;;7.55;3.85;;;;;;;19.49;95.63;95224.72;4992853;28;20192;-84
2023/08/25 03:42:39;;;;;;;7.15;3.67;;;;;;;19.51;96.03;95227.94;4995293;28;20268;-82
2023/08/25 03:45:05;;;;;;;4.60;3.53;;;;;;;19.51;95.80;95217.41;4998215;28;20192;-81
2023/08/25 03:47:31;;;;;;;4.90;3.40;;;;;;;19.58;95.31;95213.97;4984634;28;20200;-81
2023/08/25 03:49:56;;;;;;;5.20;3.47;;;;;;;19.52;95.53;95200.59;4978787;28;20192;-81
2023/08/25 03:52:22;;;;;;;4.75;3.25;;;;;;;19.43;95.67;95199.22;4988012;28;20180;-80
2023/08/25 03:54:47;;;;;;;7.22;3.42;;;;;;;19.60;95.08;95190.84;5007262;28;20214;-81
2023/08/25 03:57:12;;;;;;;6.00;3.50;;;;;;;19.59;95.16;95197.13;4992961;28;20180;-80
2023/08/25 03:59:38;;;;;;;4.32;3.33;;;;;;;19.65;94.46;95191.03;4962000;28;20573;-81
2023/08/25 04:02:06;;;;;;;6.55;3.55;;;;;;;19.67;93.81;95181.88;4978033;28;20885;-81
2023/08/25 04:04:32;;;;;;;5.07;3.58;;;;;;;19.84;92.86;95176.09;4980129;28;20200;-81
2023/08/25 04:06:57;;;;;;;3.85;3.35;;;;;;;19.88;92.75;95169.38;4982151;28;20283;-81
2023/08/25 04:09:23;;;;;;;6.85;3.38;;;;;;;19.87;92.70;95168.56;4982020;28;20232;-81
2023/08/25 04:11:48;;;;;;;8.85;3.42;;;;;;;19.87;92.69;95173.03;4977199;28;20188;-81
2023/08/25 04:14:14;;;;;;;3.97;3.40;;;;;;;19.70;93.39;95178.00;5006235;28;20195;-82
2023/08/25 04:16:39;;;;;;;4.78;3.50;;;;;;;19.72;93.46;95176.81;4980353;28;20280;-80
2023/08/25 04:19:05;;;;;;;4.93;3.10;;;;;;;19.72;93.94;95182.06;4977581;28;20204;-81
2023/08/25 04:21:30;;;;;;;3.78;3.38;;;;;;;19.72;94.50;95182.06;4993835;28;20189;-80
2023/08/25 04:23:55;;;;;;;6.13;3.40;;;;;;;19.84;93.39;95181.38;4996416;28;20203;-81
2023/08/25 04:26:21;;;;;;;8.80;3.55;;;;;;;19.64;94.64;95181.50;4998061;28;20216;-82
2023/08/25 04:28:46;;;;;;;4.45;3.75;;;;;;;19.60;94.51;95177.69;4998008;28;20275;-81
2023/08/25 04:31:11;;;;;;;6.57;3.67;;;;;;;19.69;94.50;95174.56;5002323;28;20614;-81
2023/08/25 04:33:37;;;;;;;6.25;3.70;;;;;;;19.68;94.93;95174.78;4989588;28;20191;-81
2023/08/25 04:36:03;;;;;;;4.38;3.40;;;;;;;19.61;95.08;95168.75;5005164;28;20184;-81
2023/08/25 04:38:28;;;;;;;6.80;3.63;;;;;;;19.67;95.46;95166.09;4981842;28;20238;-81
2023/08/25 04:40:53;;;;;;;5.75;3.58;;;;;;;19.58;94.71;95164.72;4993566;28;20216;-80
2023/08/25 04:43:19;;;;;;;5.65;3.33;;;;;;;19.72;94.47;95165.47;4998230;28;20565;-80
2023/08/25 04:45:44;;;;;;;5.22;3.45;;;;;;;19.67;94.20;95162.66;4981994;28;20701;-82
2023/08/25 05:36:26;;;;;;;7.68;3.35;;;;;;;21.33;83.72;95180.34;4974813;28;20220;-82
2023/08/25 05:38:53;;;;;;;5.95;3.58;;;;;;;21.21;84.30;95199.56;4962026;28;20241;-82
2023/08/25 05:41:18;;;;;;;5.65;3.92;;;;;;;21.44;83.80;95238.50;4979077;28;20737;-83
2023/08/25 05:43:43;;;;;;;7.38;3.90;;;;;;;21.45;83.87;95273.66;4979999;28;20188;-83
2023/08/25 05:46:09;;;;;;;3.40;3.10;;;;;;;21.37;83.74;95303.00;4976347;28;20223;-83
2023/08/25 05:48:34;;;;;;;8.00;3.92;;;;;;;21.31;83.61;95340.88;4983722;28;20239;-82
2023/08/25 05:50:59;;;;;;;6.38;3.83;;;;;;;21.02;83.54;95364.25;4989766;28;20227;-84
2023/08/25 05:53:28;;;;;;;4.53;3.53;;;;;;;20.56;84.50;95383.88;4984177;28;20227;-81
2023/08/25 05:55:53;;;;;;;4.60;3.83;;;;;;;20.51;85.81;95394.28;4976774;28;20185;-82
2023/08/25 05:58:18;;;;;;;5.60;3.70;;;;;;;20.46;87.96;95441.59;4979493;28;20215;-82
2023/08/25 06:00:44;;;;;;;5.38;4.55;;;;;;;20.25;90.29;95478.78;4980339;28;20202;-82
2023/08/25 06:03:09;;;;;;;6.30;4.43;;;;;;;20.12;91.73;95497.28;4979105;28;20192;-82
2023/08/25 06:05:34;;;;;;;6.72;4.45;;;;;;;19.99;94.52;95479.69;4979632;28;20251;-83
2023/08/25 06:08:00;;;;;;;4.32;3.85;;;;;;;20.09;93.49;95472.97;4979436;28;20269;-83
2023/08/25 06:10:26;;;;;;;10.32;4.57;;;;;;;20.19;93.96;95475.16;4981294;28;20654;-80
2023/08/25 06:12:52;;;;;;;9.88;4.95;;;;;;;20.03;97.26;95459.78;4987658;28;20183;-80
2023/08/25 06:15:17;;;;;;;6.47;4.20;;;;;;;19.95;97.01;95470.56;4982126;28;20609;-81
2023/08/25 06:17:42;;;;;;;4.55;4.15;;;;;;;19.90;97.39;95500.19;4983584;28;20251;-81
2023/08/25 06:20:08;;;;;;;7.00;4.50;;;;;;;19.97;97.72;95487.00;4985926;28;20197;-80
2023/08/25 06:22:33;;;;;;;7.15;4.68;;;;;;;19.94;97.73;95485.56;4985281;28;20292;-82
2023/08/25 06:24:59;;;;;;;7.30;4.32;;;;;;;19.88;98.45;95472.41;4979820;28;20224;-81
2023/08/25 06:27:24;;;;;;;5.25;4.15;;;;;;;19.88;98.80;95457.44;4978231;28;20753;-82
2023/08/25 06:29:50;;;;;;;7.25;4.65;;;;;;;19.91;98.49;95459.66;4975825;28;20242;-81
2023/08/25 06:32:15;;;;;;;5.55;4.10;;;;;;;19.89;99.18;95443.25;4990795;28;20187;-81
2023/08/25 06:34:40;;;;;;;5.18;4.38;;;;;;;19.91;99.73;95441.19;4980787;28;20204;-80
2023/08/25 06:37:06;;;;;;;4.22;3.83;;;;;;;19.86;99.07;95441.00;4982398;28;20239;-82
2023/08/25 06:39:31;;;;;;;5.13;4.05;;;;;;;19.93;99.01;95452.31;4983006;28;20189;-80
2023/08/25 06:41:56;;;;;;;6.00;4.30;;;;;;;19.90;99.49;95441.41;4981351;28;20347;-80
2023/08/25 06:44:22;;;;;;;6.05;4.65;;;;;;;19.83;99.71;95404.53;4978261;28;20188;-81
2023/08/25 06:46:47;;;;;;;6.25;4.55;;;;;;;19.80;100.00;95381.25;4976830;28;20291;-81
2023/08/25 06:49:12;;;;;;;4.22;3.85;;;;;;;19.90;98.81;95388.72;4977621;28;20736;-81
2023/08/25 06:51:38;;;;;;;7.60;4.13;;;;;;;19.78;99.68;95384.06;4995990;28;20875;-82
2023/08/25 06:54:03;;;;;;;6.28;4.38;;;;;;;20.00;98.68;95368.78;4990564;28;20184;-81
2023/08/25 06:56:28;;;;;;;7.22;3.92;;;;;;;20.01;98.32;95364.31;4986505;28;20187;-81
2023/08/25 06:58:54;;;;;;;4.97;4.03;;;;;;;19.97;99.07;95378.94;4984588;28;20212;-80
2023/08/25 07:01:19;;;;;;;5.45;4.05;;;;;;;19.54;100.00;95395.28;4982735;28;20228;-81
2023/08/25 07:03:44;;;;;;;4.18;3.70;;;;;;;19.37;100.00;95405.44;4989970;28;20194;-81
2023/08/25 07:06:10;;;;;;;6.40;3.22;;;;;;;19.49;100.00;95414.31;4991318;28;20216;-80
2023/08/25 07:08:36;;;;;;;5.00;3.95;;;;;;;19.38;100.00;95437.84;4976189;28;20204;-81
2023/08/25 07:11:03;;;;;;;4.55;3.13;;;;;;;19.15;100.00;95428.53;4977657;28;20617;-81
2023/08/25 07:13:29;;;;;;;4.45;4.05;;;;;;;19.45;100.00;95422.84;4987295;28;20196;-81
2023/08/25 07:15:54;;;;;;;4.50;2.88;;;;;;;19.38;100.00;95427.31;4996295;28;20180;-81
2023/08/25 07:18:20;;;;;;;6.03;2.83;;;;;;;19.34;99.47;95455.84;4992060;28;20218;-81
2023/08/25 07:20:45;;;;;;;5.50;2.75;;;;;;;19.37;100.00;95476.53;4997316;28;20223;-79
2023/08/25 07:23:10;;;;;;;4.32;3.28;;;;;;;19.34;100.00;95473.47;4991435;28;20205;-80
2023/08/25 07:25:37;;;;;;;4.53;3.17;;;;;;;19.37;100.00;95483.63;4973687;28;20271;-80
2023/08/25 07:28:03;;;;;;;4.20;2.80;;;;;;;19.62;99.33;95494.38;4996663;28;20200;-80
2023/08/25 07:30:38;;;;;;;4.75;3.20;;;;;;;19.58;100.00;95495.78;4972465;28;20235;-87
2023/08/25 07:33:05;;;;;;;4.57;3.55;;;;;;;19.47;100.00;95503.25;4979912;28;20340;-78
2023/08/25 07:35:35;;;;;;;5.25;3.60;;;;;;;19.50;100.00;95502.84;4982337;28;20195;-80
2023/08/25 07:38:02;;;;;;;5.10;3.00;;;;;;;19.45;100.00;95494.75;4971615;28;20209;-82
2023/08/25 07:40:27;;;;;;;5.63;3.35;;;;;;;19.49;100.00;95481.97;4977370;28;20191;-81
2023/08/25 07:42:57;;;;;;;4.63;3.15;;;;;;;19.30;100.00;95470.47;4976257;28;20185;-82
2023/08/25 07:45:24;;;;;;;5.57;3.38;;;;;;;19.41;100.00;95469.84;4983777;28;20195;-83
2023/08/25 07:47:49;;;;;;;3.17;2.88;;;;;;;19.36;100.00;95498.63;4958104;28;20254;-81
2023/08/25 07:50:15;;;;;;;5.15;2.83;;;;;;;19.32;100.00;95484.22;4981526;28;20204;-82
2023/08/25 07:52:41;;;;;;;3.63;2.75;;;;;;;19.42;100.00;95481.16;4977900;28;20601;-80
2023/08/25 07:55:07;;;;;;;4.25;2.97;;;;;;;19.27;100.00;95473.50;4982119;28;20192;-83
2023/08/25 07:57:32;;;;;;;3.83;3.10;;;;;;;19.20;100.00;95478.75;4984189;28;20212;-83
2023/08/25 07:59:58;;;;;;;5.25;3.13;;;;;;;19.29;100.00;95476.75;4979994;28;20180;-83
2023/08/25 08:02:23;;;;;;;4.65;3.40;;;;;;;19.14;100.00;95466.41;4978497;28;20185;-83
2023/08/25 08:04:48;;;;;;;5.60;3.38;;;;;;;19.19;100.00;95455.28;4978545;28;20689;-82
2023/08/25 08:07:14;;;;;;;5.32;3.50;;;;;;;19.19;100.00;95456.09;4971566;28;20291;-83
2023/08/25 08:09:39;;;;;;;5.35;3.72;;;;;;;19.01;100.00;95450.63;4973590;28;21011;-82
2023/08/25 08:12:05;;;;;;;4.20;3.40;;;;;;;19.19;100.00;95456.09;4973516;28;20195;-82
2023/08/25 08:14:35;;;;;;;5.65;3.55;;;;;;;19.08;99.25;95447.97;4980037;28;20238;-82
2023/08/25 08:17:00;;;;;;;3.92;3.15;;;;;;;19.13;100.00;95451.63;4981908;28;20283;-83
2023/08/25 08:19:25;;;;;;;6.18;3.40;;;;;;;19.11;100.00;95431.78;4984877;28;20872;-82
2023/08/25 08:21:51;;;;;;;5.80;3.55;;;;;;;19.06;100.00;95434.22;4972189;28;20862;-81
2023/08/25 08:24:16;;;;;;;3.95;2.90;;;;;;;19.06;100.00;95427.13;4984935;28;20192;-82
2023/08/25 08:26:41;;;;;;;4.55;3.25;;;;;;;18.98;100.00;95419.44;4961829;28;20304;-84
2023/08/25 08:29:07;;;;;;;4.32;3.80;;;;;;;19.07;100.00;95410.31;4979591;28;20213;-82
2023/08/25 08:31:32;;;;;;;4.47;3.15;;;;;;;19.14;100.00;95402.44;4978929;28;20245;-83
2023/08/25 08:33:57;;;;;;;6.70;3.13;;;;;;;19.16;99.90;95387.22;4983937;28;20510;-83
2023/08/25 08:36:23;;;;;;;4.25;2.90;;;;;;;19.14;99.50;95357.69;4984813;28;20222;-83
2023/08/25 08:38:48;;;;;;;4.75;3.40;;;;;;;19.13;100.00;95353.44;4967018;28;20302;-85
2023/08/25 08:41:17;;;;;;;4.70;2.78;;;;;;;19.28;99.03;95334.78;5006164;28;20189;-83
2023/08/25 08:43:45;;;;;;;6.88;2.83;;;;;;;19.26;98.77;95327.09;4995571;28;20191;-85
2023/08/25 08:46:14;;;;;;;4.35;3.13;;;;;;;19.10;99.23;95314.38;4962835;28;20231;-83
2023/08/25 08:48:39;;;;;;;7.15;3.15;;;;;;;19.35;98.18;95302.16;4978485;28;20689;-83
2023/08/25 08:51:06;;;;;;;5.72;3.15;;;;;;;19.32;99.00;95285.94;4984575;28;20207;-83
2023/08/25 08:53:31;;;;;;;2.92;2.70;;;;;;;19.34;96.41;95266.28;4982496;28;20670;-78
2023/08/25 08:55:58;;;;;;;6.35;3.15;;;;;;;19.45;95.44;95254.31;4982610;28;20196;-77
2023/08/25 08:58:24;;;;;;;8.00;2.80;;;;;;;19.61;93.02;95258.31;4975560;28;20574;-78
2023/08/25 09:00:49;;;;;;;3.85;2.90;;;;;;;19.74;92.18;95247.72;4961975;28;20247;-77
2023/08/25 09:03:18;;;;;;;5.53;2.85;;;;;;;19.76;90.61;95249.09;4971444;28;20246;-77
2023/08/25 09:05:44;;;;;;;3.97;2.92;;;;;;;19.97;86.75;95245.34;4974825;28;20203;-77
2023/08/25 09:08:11;;;;;;;4.13;2.78;;;;;;;20.06;88.03;95251.16;4958845;28;20219;-77
2023/08/25 09:10:36;;;;;;;3.90;2.92;;;;;;;20.22;90.21;95260.34;4973877;28;20255;-77
2023/08/25 09:13:02;;;;;;;4.10;2.90;;;;;;;20.07;95.51;95255.41;4977611;28;20176;-77
2023/08/25 09:15:29;;;;;;;5.32;3.30;;;;;;;19.81;98.58;95237.94;4978591;28;20180;-78
2023/08/25 09:18:07;;;;;;;7.20;3.95;;;;;;;19.89;97.68;95234.25;4978273;28;20205;-78
2023/08/25 09:20:38;;;;;;;4.47;3.55;;;;;;;19.71;99.50;95242.88;4972464;28;20189;-77
2023/08/25 09:23:04;;;;;;;4.97;3.15;;;;;;;19.69;99.32;95260.69;4975184;28;20187;-76
2023/08/25 09:25:31;;;;;;;4.22;2.95;;;;;;;19.58;99.90;95259.53;4967505;28;20223;-80
2023/08/25 09:28:02;;;;;;;4.43;3.20;;;;;;;19.73;99.48;95249.53;4957289;28;20228;-76
2023/08/25 09:30:41;;;;;;;5.55;3.45;;;;;;;19.58;99.34;95235.84;4996250;28;20217;-77
2023/08/25 09:33:09;;;;;;;5.05;3.40;;;;;;;19.47;99.48;95232.00;4962018;28;20197;-78
2023/08/25 09:35:34;;;;;;;4.82;2.97;;;;;;;19.46;100.00;95235.66;4974862;28;20605;-78
2023/08/25 09:38:00;;;;;;;4.32;3.95;;;;;;;19.45;100.00;95241.97;4976153;28;20332;-78
2023/08/25 09:40:26;;;;;;;6.72;3.42;;;;;;;19.43;100.00;95251.88;4981265;28;20194;-77
2023/08/25 09:42:58;;;;;;;6.30;3.50;;;;;;;19.21;100.00;95253.19;4972700;28;20176;-77
2023/08/25 09:45:27;;;;;;;4.65;3.63;;;;;;;19.36;100.00;95240.59;4978118;28;20891;-77
2023/08/25 09:47:53;;;;;;;4.53;3.63;;;;;;;19.43;100.00;95246.59;4980556;28;20705;-78
2023/08/25 09:50:19;;;;;;;4.00;3.30;;;;;;;19.78;99.30;95243.63;4984335;28;20203;-79
2023/08/25 09:52:47;;;;;;;3.50;3.20;;;;;;;19.59;100.00;95255.88;4984724;28;20188;-76
2023/08/25 09:55:13;;;;;;;5.30;3.80;;;;;;;19.64;99.84;95255.28;4982905;28;20189;-76
2023/08/25 09:57:39;;;;;;;4.57;3.00;;;;;;;19.78;98.21;95254.97;4977463;28;20706;-76
2023/08/25 10:00:04;;;;;;;4.15;3.28;;;;;;;19.92;97.18;95265.44;4976143;28;20192;-76
2023/08/25 10:02:31;;;;;;;4.47;3.90;;;;;;;19.96;97.05;95272.69;4990319;28;20189;-76
2023/08/25 10:04:56;;;;;;;3.90;3.50;;;;;;;20.16;96.57;95275.22;4976277;28;20184;-76
2023/08/25 10:07:22;;;;;;;4.18;3.55;;;;;;;20.22;95.94;95269.06;4977315;28;20209;-76
2023/08/25 10:09:48;;;;;;;4.63;3.63;;;;;;;20.26;95.53;95264.19;4979571;28;20573;-75
2023/08/25 10:12:14;;;;;;;5.57;3.28;;;;;;;20.42;94.41;95262.88;4982946;28;20212;-76
2023/08/25 10:14:42;;;;;;;4.07;3.10;;;;;;;20.59;94.21;95245.50;4977897;28;20571;-76
2023/08/25 10:17:10;;;;;;;3.83;3.08;;;;;;;20.47;94.31;95258.56;4977107;28;20219;-76
2023/08/25 10:19:36;;;;;;;4.22;3.30;;;;;;;20.59;93.16;95279.78;4975194;28;20192;-76
2023/08/25 10:22:02;;;;;;;4.13;3.20;;;;;;;20.50;92.57;95286.38;4973518;28;20275;-78
2023/08/25 10:24:29;;;;;;;5.82;3.60;;;;;;;20.86;90.60;95302.28;4968043;28;20199;-80
2023/08/25 10:26:55;;;;;;;3.75;3.17;;;;;;;20.87;89.59;95306.53;4983126;28;20227;-76
2023/08/25 10:29:21;;;;;;;3.70;3.17;;;;;;;21.33;87.70;95307.13;4984673;28;20753;-76
2023/08/25 10:31:49;;;;;;;3.50;3.20;;;;;;;21.67;86.41;95309.16;4980925;28;20192;-77
2023/08/25 10:34:43;;;;;;;4.35;3.53;;;;;;;22.25;83.80;95313.88;4988681;28;20180;-78
2023/08/25 10:37:14;;;;;;;4.32;3.10;;;;;;;22.04;83.57;95314.38;4979716;28;20643;-77
2023/08/25 10:39:56;;;;;;;3.85;3.55;;;;;;;22.39;81.82;95313.69;4986675;28;20242;-78
2023/08/25 10:42:27;;;;;;;3.03;2.70;;;;;;;22.13;81.26;95305.13;4968957;28;20662;-77
2023/08/25 10:44:55;;;;;;;5.32;3.10;;;;;;;22.38;80.29;95309.44;4975162;28;20221;-76
2023/08/25 10:47:23;;;;;;;2.90;2.65;;;;;;;22.37;77.21;95299.91;5000549;28;20220;-78
2023/08/25 10:49:53;;;;;;;3.22;2.90;;;;;;;22.49;77.30;95292.78;4981723;28;20187;-77
2023/08/25 10:52:19;;;;;;;3.92;3.25;;;;;;;22.66;76.62;95283.13;4994829;28;20191;-77
2023/08/25 10:54:46;;;;;;;3.58;2.78;;;;;;;22.38;76.93;95288.28;4977059;28;20181;-77
2023/08/25 10:57:26;;;;;;;4.45;3.00;;;;;;;22.26;76.02;95277.66;4987202;28;20193;-82
2023/08/25 10:59:56;;;;;;;2.83;2.63;;;;;;;22.23;75.39;95281.56;5008953;28;20198;-81
2023/08/25 11:02:35;;;;;;;3.40;2.65;;;;;;;22.22;75.44;95273.88;4987805;28;20202;-81
2023/08/25 11:05:29;;;;;;;3.22;2.88;;;;;;;22.38;74.62;95269.75;4994005;28;20642;-82
2023/08/25 11:07:55;;;;;;;2.60;2.40;;;;;;;22.66;74.03;95264.59;4998277;28;20218;-81
2023/08/25 11:10:24;;;;;;;3.17;2.53;;;;;;;22.13;75.29;95252.22;4982874;28;20340;-81
2023/08/25 11:12:53;;;;;;;2.92;2.65;;;;;;;22.16;73.39;95258.91;4994254;28;20195;-83
2023/08/25 11:15:21;;;;;;;2.60;2.40;;;;;;;22.18;74.93;95273.53;4977327;28;20220;-82
2023/08/25 11:17:46;;;;;;;3.58;2.67;;;;;;;22.29;75.81;95280.66;4984854;28;20204;-81
2023/08/25 11:20:12;;;;;;;2.88;2.50;;;;;;;22.71;75.14;95293.84;4992246;28;20191;-81
2023/08/25 11:22:54;;;;;;;2.90;2.70;;;;;;;22.78;75.88;95289.22;4990135;28;20199;-81
2023/08/25 11:25:20;;;;;;;3.75;3.08;;;;;;;22.67;76.67;95315.69;5003340;28;20191;-81
2023/08/25 11:27:52;;;;;;;2.70;2.50;;;;;;;22.01;76.63;95296.31;4966085;28;20252;-80
2023/08/25 11:30:17;;;;;;;3.97;2.95;;;;;;;21.87;76.98;95313.38;4983985;28;20180;-81
2023/08/25 11:32:50;;;;;;;3.20;2.50;;;;;;;21.98;76.48;95291.47;4988244;28;20756;-81
2023/08/25 11:35:15;;;;;;;6.50;3.45;;;;;;;21.91;77.38;95290.72;4985119;28;20224;-81
2023/08/25 11:37:41;;;;;;;3.03;2.70;;;;;;;21.86;77.38;95296.72;4961636;28;20232;-82
2023/08/25 11:40:13;;;;;;;3.58;3.28;;;;;;;21.76;78.14;95283.22;5006898;28;20187;-81
2023/08/25 11:42:40;;;;;;;4.82;2.60;;;;;;;21.82;76.94;95276.22;4972231;28;20191;-82
2023/08/25 11:45:07;;;;;;;4.03;3.03;;;;;;;21.59;77.12;95283.03;4985376;28;20665;-82
2023/08/25 11:47:33;;;;;;;3.22;2.92;;;;;;;21.95;77.97;95286.63;4982171;28;20231;-83
2023/08/25 11:49:59;;;;;;;5.13;3.22;;;;;;;22.25;77.18;95282.13;4982310;28;20196;-83
2023/08/25 11:52:25;;;;;;;3.50;3.08;;;;;;;21.76;79.18;95262.88;4987498;28;20180;-82
2023/08/25 11:54:50;;;;;;;4.32;3.00;;;;;;;21.59;78.62;95253.16;4986504;28;20833;-83
2023/08/25 11:57:15;;;;;;;4.65;3.45;;;;;;;21.37;79.70;95239.59;4976128;28;20755;-82
2023/08/25 11:59:41;;;;;;;3.60;3.30;;;;;;;21.51;80.50;95262.19;4993758;28;20662;-83
2023/08/25 12:02:07;;;;;;;4.68;3.10;;;;;;;21.66;79.19;95241.47;4977125;28;20177;-84
2023/08/25 12:04:32;;;;;;;5.90;3.25;;;;;;;21.83;79.25;95230.28;4979713;28;20187;-84
2023/08/25 12:06:57;;;;;;;3.97;2.72;;;;;;;21.84;79.38;95214.19;4978655;28;20857;-82
2023/08/25 12:09:24;;;;;;;4.57;3.10;;;;;;;21.89;79.43;95209.03;4981338;28;20600;-82
2023/08/25 12:11:51;;;;;;;4.18;3.67;;;;;;;21.94;79.30;95205.72;4989129;28;20185;-82
2023/08/25 12:14:30;;;;;;;5.15;3.53;;;;;;;22.04;80.07;95187.44;4973470;28;20204;-81
2023/08/25 12:16:56;;;;;;;3.92;3.30;;;;;;;22.18;79.55;95180.16;4982945;28;20180;-80